Time;durP1;ratioP1;P1;durP2;ratioP2;P2;SDS_P1;SDS_P2;PMS_P1;PMS_P2;Temp;Humidity;BMP_temperature;BMP_pressure;BME280_temperature;BME280_humidity;BME280_pressure;Samples;Min_cycle;Max_cycle;Signal;HPM_P1;HPM_P2
2022/07/24 00:01:43;;;;;;;14.35;8.13;;;;;;;19.62;70.42;101826.88;5037746;28;20063;-37
2022/07/24 00:04:09;;;;;;;18.05;8.73;;;;;;;19.62;70.78;101818.69;5038872;28;20032;-38
2022/07/24 00:06:34;;;;;;;13.38;8.20;;;;;;;19.58;70.77;101811.97;5040540;28;20057;-35
2022/07/24 00:09:00;;;;;;;18.65;8.48;;;;;;;19.58;70.99;101821.00;5040066;28;20405;-36
2022/07/24 00:11:26;;;;;;;20.08;8.40;;;;;;;19.60;71.47;101818.91;5039869;28;20029;-34
2022/07/24 00:13:51;;;;;;;20.15;8.93;;;;;;;19.55;70.96;101815.97;5040438;28;20052;-36
2022/07/24 00:16:16;;;;;;;15.65;8.95;;;;;;;19.47;71.45;101819.78;5040129;28;20110;-35
2022/07/24 00:18:42;;;;;;;11.75;8.00;;;;;;;19.44;71.75;101825.69;5040706;28;20040;-36
2022/07/24 00:21:07;;;;;;;12.10;7.55;;;;;;;19.47;71.92;101824.44;5025148;28;20041;-36
2022/07/24 00:23:32;;;;;;;19.13;8.15;;;;;;;19.47;71.93;101830.72;5043787;28;20025;-34
2022/07/24 00:25:58;;;;;;;22.65;9.15;;;;;;;19.46;71.98;101823.59;5043016;28;20250;-38
2022/07/24 00:28:23;;;;;;;21.67;9.48;;;;;;;19.45;72.04;101832.00;5041671;28;20027;-37
2022/07/24 00:30:49;;;;;;;19.92;9.38;;;;;;;19.39;72.44;101820.03;5042175;28;20049;-36
2022/07/24 00:33:14;;;;;;;19.23;9.43;;;;;;;19.39;72.32;101822.78;5042469;28;20022;-35
2022/07/24 00:35:39;;;;;;;18.52;9.25;;;;;;;19.32;72.94;101826.59;5042978;28;20080;-37
2022/07/24 00:38:05;;;;;;;16.52;8.50;;;;;;;19.35;72.79;101821.53;5009297;28;20034;-34
2022/07/24 00:40:30;;;;;;;12.90;9.07;;;;;;;19.35;72.84;101816.06;5044256;28;20091;-35
2022/07/24 00:42:57;;;;;;;14.00;8.88;;;;;;;19.35;72.87;101817.97;5044154;28;20034;-34
2022/07/24 00:45:22;;;;;;;14.35;8.60;;;;;;;19.35;73.06;101821.53;5043374;28;20028;-35
2022/07/24 00:47:47;;;;;;;21.15;8.82;;;;;;;19.34;73.31;101819.84;5043819;28;20029;-34
2022/07/24 00:50:13;;;;;;;17.90;8.68;;;;;;;19.34;72.87;101822.59;5043584;28;20418;-34
2022/07/24 00:52:38;;;;;;;17.13;7.95;;;;;;;19.33;73.36;101818.19;5044275;28;20106;-36
2022/07/24 00:55:04;;;;;;;13.93;8.15;;;;;;;19.33;72.97;101820.91;5042856;28;20040;-35
2022/07/24 00:57:30;;;;;;;16.13;8.23;;;;;;;19.32;73.43;101812.94;5024787;28;20093;-38
2022/07/24 00:59:55;;;;;;;16.20;9.10;;;;;;;19.33;72.93;101807.28;5040512;28;20033;-37
2022/07/24 01:02:21;;;;;;;17.15;9.30;;;;;;;19.30;73.57;101810.44;5040568;28;20028;-35
2022/07/24 01:04:47;;;;;;;23.40;9.57;;;;;;;19.31;73.65;101798.47;5040983;28;20043;-38
2022/07/24 01:07:12;;;;;;;19.42;9.20;;;;;;;19.29;73.59;101806.00;5042546;28;20432;-36
2022/07/24 01:09:38;;;;;;;17.35;8.45;;;;;;;19.28;73.93;101798.91;5042729;28;20029;-37
2022/07/24 01:12:04;;;;;;;16.60;9.02;;;;;;;19.28;73.77;101796.16;5023392;28;20030;-37
2022/07/24 01:14:32;;;;;;;19.00;9.40;;;;;;;19.23;73.94;101796.81;5042041;28;20289;-37
2022/07/24 01:16:57;;;;;;;18.75;9.27;;;;;;;19.21;73.93;101798.06;5040522;28;20104;-38
2022/07/24 01:19:23;;;;;;;14.60;8.75;;;;;;;19.20;74.27;101802.69;5041187;28;20103;-36
2022/07/24 01:21:49;;;;;;;16.42;8.95;;;;;;;19.21;73.79;101798.06;5042061;28;20100;-35
2022/07/24 01:24:15;;;;;;;17.48;9.07;;;;;;;19.08;73.65;101794.34;5042841;28;20030;-35
2022/07/24 01:26:40;;;;;;;15.10;8.35;;;;;;;19.03;73.53;101790.59;5043410;28;20161;-36
2022/07/24 01:29:06;;;;;;;13.32;7.35;;;;;;;19.08;73.85;101793.50;5042484;28;20131;-35
2022/07/24 01:31:31;;;;;;;18.25;7.90;;;;;;;19.06;73.59;101791.00;5043206;28;20030;-36
2022/07/24 01:33:57;;;;;;;14.77;7.28;;;;;;;19.03;73.28;101793.31;5042682;28;20087;-37
2022/07/24 01:36:22;;;;;;;19.10;8.25;;;;;;;19.00;73.76;101789.13;5042946;28;20045;-36
2022/07/24 01:38:47;;;;;;;15.38;7.80;;;;;;;19.04;74.01;101789.53;5041996;28;20025;-35
2022/07/24 01:41:13;;;;;;;16.40;7.28;;;;;;;19.04;73.95;101789.53;5025147;28;20083;-35
2022/07/24 01:43:38;;;;;;;19.92;7.88;;;;;;;19.01;73.91;101790.81;5042141;28;20037;-36
2022/07/24 01:46:04;;;;;;;12.32;7.07;;;;;;;19.00;73.99;101791.84;5024998;28;20022;-35
2022/07/24 01:48:29;;;;;;;18.48;7.57;;;;;;;19.01;73.93;101793.53;5042923;28;20033;-38
2022/07/24 01:50:54;;;;;;;16.35;7.00;;;;;;;18.99;74.14;101782.00;5025172;28;20094;-35
2022/07/24 01:53:20;;;;;;;16.85;6.93;;;;;;;18.97;74.03;101775.91;5042730;28;20025;-34
2022/07/24 01:55:45;;;;;;;14.00;6.65;;;;;;;18.98;74.07;101776.75;5042075;28;20053;-36
2022/07/24 01:58:10;;;;;;;14.63;6.57;;;;;;;18.96;73.84;101776.97;5024705;28;20038;-35
2022/07/24 02:00:36;;;;;;;14.32;5.80;;;;;;;18.97;74.15;101780.53;5041823;28;20125;-35
2022/07/24 02:03:01;;;;;;;15.07;6.38;;;;;;;18.93;74.04;101768.38;5022803;28;20107;-35
2022/07/24 02:05:26;;;;;;;17.13;6.50;;;;;;;18.89;74.25;101767.13;5041221;28;20029;-35
2022/07/24 02:07:58;;;;;;;14.93;6.68;;;;;;;18.89;74.46;101772.59;5041747;28;20174;-35
2022/07/24 02:10:23;;;;;;;12.82;5.80;;;;;;;18.86;74.46;101769.22;5042134;28;20045;-34
2022/07/24 02:12:49;;;;;;;14.50;5.43;;;;;;;18.84;74.58;101760.41;5041445;28;20032;-38
2022/07/24 02:15:14;;;;;;;14.43;6.40;;;;;;;18.84;74.45;101759.59;5040955;28;20025;-34
2022/07/24 02:17:45;;;;;;;11.02;6.00;;;;;;;18.81;74.60;101749.13;5042558;28;20106;-36
2022/07/24 02:20:10;;;;;;;16.30;6.25;;;;;;;18.76;74.32;101757.09;5043141;28;20038;-37
2022/07/24 02:22:36;;;;;;;13.82;5.43;;;;;;;18.75;74.26;101761.72;5041965;28;20028;-35
2022/07/24 02:25:02;;;;;;;14.48;6.07;;;;;;;18.74;74.11;101759.16;5042683;28;20043;-37
2022/07/24 02:27:27;;;;;;;13.02;5.32;;;;;;;18.72;74.06;101764.00;5042044;28;20047;-35
2022/07/24 02:29:53;;;;;;;18.17;5.00;;;;;;;18.74;74.17;101767.34;5041858;28;20076;-35
2022/07/24 02:32:18;;;;;;;13.07;5.18;;;;;;;18.71;73.85;101765.88;5041977;28;20021;-35
2022/07/24 02:34:43;;;;;;;10.30;5.32;;;;;;;18.66;73.76;101760.22;5041647;28;20069;-36
2022/07/24 02:37:09;;;;;;;15.93;5.70;;;;;;;18.59;73.80;101756.69;5041815;28;20021;-35
2022/07/24 02:39:34;;;;;;;9.43;5.22;;;;;;;18.56;74.35;101748.91;5041511;28;20040;-35
2022/07/24 02:41:59;;;;;;;9.68;5.35;;;;;;;18.52;74.53;101743.06;5040570;28;20017;-37
2022/07/24 02:44:25;;;;;;;16.40;5.95;;;;;;;18.50;74.72;101741.59;5042049;28;20034;-37
2022/07/24 02:46:50;;;;;;;17.27;5.82;;;;;;;18.44;75.03;101751.47;5041052;28;20025;-35
2022/07/24 02:49:15;;;;;;;10.52;5.85;;;;;;;18.44;75.23;101748.75;5041156;28;20033;-37
2022/07/24 02:51:41;;;;;;;11.63;5.28;;;;;;;18.43;75.21;101742.47;5041212;28;20030;-37
2022/07/24 02:54:06;;;;;;;18.95;5.85;;;;;;;18.41;75.33;101738.28;5041154;28;20036;-34
2022/07/24 02:56:31;;;;;;;15.82;6.00;;;;;;;18.37;75.57;101732.38;5041864;28;20026;-36
2022/07/24 02:58:57;;;;;;;10.50;5.20;;;;;;;18.37;75.66;101726.09;5041825;28;20548;-34
2022/07/24 03:01:23;;;;;;;11.70;5.47;;;;;;;18.35;75.68;101736.38;5041539;28;20047;-34
2022/07/24 03:03:48;;;;;;;13.60;5.43;;;;;;;18.31;75.83;101733.25;5041066;28;20104;-34
2022/07/24 03:06:13;;;;;;;10.07;5.55;;;;;;;18.28;75.96;101730.13;5041084;28;20067;-35
2022/07/24 03:08:39;;;;;;;11.90;5.57;;;;;;;18.20;76.26;101732.00;5041693;28;20085;-37
2022/07/24 03:11:04;;;;;;;11.18;5.40;;;;;;;18.20;76.21;101720.28;5041442;28;20044;-35
2022/07/24 03:13:29;;;;;;;13.13;5.20;;;;;;;18.23;76.03;101716.28;5023414;28;20034;-35
2022/07/24 03:15:55;;;;;;;11.48;4.93;;;;;;;18.21;76.03;101722.78;5041297;28;20022;-34
2022/07/24 03:18:20;;;;;;;13.45;4.65;;;;;;;18.18;76.10;101706.84;5041293;28;20493;-35
2022/07/24 03:20:45;;;;;;;15.18;4.93;;;;;;;18.15;76.03;101709.16;5040134;28;20419;-35
2022/07/24 03:23:10;;;;;;;7.57;4.72;;;;;;;18.12;76.15;101707.72;5041463;28;20071;-35
2022/07/24 03:25:36;;;;;;;10.32;4.78;;;;;;;18.10;75.88;101712.53;5041737;28;20026;-34
2022/07/24 03:28:01;;;;;;;6.07;4.05;;;;;;;18.10;76.39;101706.25;5041102;28;20022;-41
2022/07/24 03:30:26;;;;;;;13.98;4.35;;;;;;;18.04;75.82;101697.03;5041271;28;20392;-36
2022/07/24 03:32:52;;;;;;;6.97;3.88;;;;;;;18.03;76.03;101703.50;5040495;28;20035;-37
2022/07/24 03:35:17;;;;;;;9.38;4.45;;;;;;;17.96;76.31;101702.69;5040763;28;20041;-35
2022/07/24 03:37:43;;;;;;;9.40;4.00;;;;;;;17.89;76.35;101702.69;5040456;28;20056;-34
2022/07/24 03:40:09;;;;;;;15.50;4.57;;;;;;;17.90;76.62;101714.41;5040700;28;20049;-35
2022/07/24 03:42:34;;;;;;;11.05;3.90;;;;;;;17.91;76.38;101714.22;5040473;28;20025;-34
2022/07/24 03:45:00;;;;;;;10.80;4.20;;;;;;;17.89;76.54;101710.84;5041117;28;20033;-35
2022/07/24 03:47:25;;;;;;;6.95;4.10;;;;;;;17.83;76.90;101708.13;5040990;28;20041;-37
2022/07/24 03:49:50;;;;;;;9.07;4.05;;;;;;;17.82;76.82;101711.88;5040141;28;20104;-35
2022/07/24 03:52:16;;;;;;;6.93;4.22;;;;;;;17.83;77.00;101713.59;5006383;28;20428;-36
2022/07/24 03:54:41;;;;;;;10.63;4.13;;;;;;;17.83;77.05;101713.59;5040511;28;20115;-36
2022/07/24 03:57:06;;;;;;;14.40;4.22;;;;;;;17.82;76.95;101711.88;5040901;28;20049;-35
2022/07/24 03:59:32;;;;;;;10.77;4.38;;;;;;;17.75;77.53;101706.41;5040817;28;20025;-34
2022/07/24 04:01:57;;;;;;;13.45;4.53;;;;;;;17.70;77.78;101707.03;5041012;28;20108;-35
2022/07/24 04:04:23;;;;;;;7.13;3.75;;;;;;;17.71;77.80;101700.53;5040986;28;20048;-35
2022/07/24 04:06:48;;;;;;;8.40;4.32;;;;;;;17.69;77.70;101691.75;5040043;28;20025;-37
2022/07/24 04:09:13;;;;;;;9.98;4.35;;;;;;;17.70;78.02;101690.72;5040550;28;20033;-35
2022/07/24 04:11:39;;;;;;;7.80;4.03;;;;;;;17.72;78.04;101694.06;5039934;28;20026;-36
2022/07/24 04:14:04;;;;;;;6.72;3.90;;;;;;;17.70;78.06;101698.88;5040760;28;20053;-35
2022/07/24 04:16:30;;;;;;;7.85;4.43;;;;;;;17.68;78.26;101702.84;5040022;28;20025;-35
2022/07/24 04:18:55;;;;;;;9.05;4.25;;;;;;;17.67;78.58;101703.91;5040183;28;20108;-35
2022/07/24 04:21:20;;;;;;;8.18;4.88;;;;;;;17.69;78.66;101716.28;5040387;28;20045;-34
2022/07/24 04:23:46;;;;;;;9.73;4.38;;;;;;;17.72;78.85;101712.25;5040547;28;20021;-35
2022/07/24 04:26:12;;;;;;;11.95;4.68;;;;;;;17.77;78.89;101709.75;5040202;28;20025;-34
2022/07/24 04:28:37;;;;;;;8.48;4.60;;;;;;;17.77;78.87;101699.72;5022114;28;20029;-35
2022/07/24 04:31:03;;;;;;;7.43;4.57;;;;;;;17.80;78.90;101698.50;5040987;28;20032;-35
2022/07/24 04:33:29;;;;;;;11.70;4.80;;;;;;;17.72;79.63;101694.06;5040802;28;20018;-35
2022/07/24 04:35:54;;;;;;;9.45;4.45;;;;;;;17.73;79.51;101701.19;5039818;28;20065;-35
2022/07/24 04:38:20;;;;;;;7.55;4.60;;;;;;;17.78;79.69;101701.38;5039469;28;20049;-36
2022/07/24 04:40:45;;;;;;;6.57;4.35;;;;;;;17.78;79.58;101709.56;5040548;28;20116;-35
2022/07/24 04:43:10;;;;;;;10.20;4.70;;;;;;;17.80;79.19;101708.53;5040195;28;20101;-36
2022/07/24 04:45:36;;;;;;;5.53;3.78;;;;;;;17.86;78.95;101707.72;5040408;28;20022;-35
2022/07/24 04:48:02;;;;;;;14.00;5.55;;;;;;;17.84;78.43;101728.88;5023708;28;20049;-35
2022/07/24 04:50:27;;;;;;;9.40;4.68;;;;;;;17.86;78.43;101721.34;5041287;28;20030;-36
2022/07/24 04:52:52;;;;;;;6.90;4.32;;;;;;;17.88;78.05;101716.53;5023034;28;20443;-35
2022/07/24 04:55:18;;;;;;;13.40;4.60;;;;;;;17.91;77.88;101721.53;5040306;28;20037;-38
2022/07/24 04:57:43;;;;;;;6.68;4.18;;;;;;;17.97;77.59;101720.69;5039830;28;20037;-34
2022/07/24 05:00:10;;;;;;;6.90;4.20;;;;;;;18.02;77.50;101723.63;5040231;28;20219;-35
2022/07/24 05:02:36;;;;;;;10.65;3.78;;;;;;;18.06;77.07;101724.91;5040418;28;20057;-35
2022/07/24 05:05:02;;;;;;;6.57;3.90;;;;;;;18.03;76.76;101719.00;5040524;28;20107;-36
2022/07/24 05:07:27;;;;;;;7.70;4.63;;;;;;;17.98;77.00;101717.78;5043620;28;20508;-35
2022/07/24 05:09:52;;;;;;;9.65;4.32;;;;;;;17.99;76.91;101718.59;5044183;28;20049;-36
2022/07/24 05:12:18;;;;;;;9.90;4.40;;;;;;;18.03;76.91;101722.56;5044712;28;20026;-36
2022/07/24 05:14:43;;;;;;;8.07;3.95;;;;;;;18.00;76.40;101728.44;5044150;28;20034;-35
2022/07/24 05:17:08;;;;;;;8.27;4.30;;;;;;;18.03;76.85;101733.47;5044527;28;20428;-37
2022/07/24 05:19:34;;;;;;;8.43;3.90;;;;;;;18.06;76.93;101729.50;5043351;28;20374;-34
2022/07/24 05:21:59;;;;;;;7.93;4.07;;;;;;;18.14;76.70;101721.97;5026474;28;20031;-38
2022/07/24 05:24:24;;;;;;;7.10;3.88;;;;;;;18.31;76.76;101726.97;5025664;28;20360;-34
2022/07/24 05:26:50;;;;;;;6.38;3.88;;;;;;;18.47;76.08;101726.50;5043186;28;20056;-33
2022/07/24 05:29:16;;;;;;;8.27;4.38;;;;;;;18.69;74.38;101735.25;5042729;28;20029;-34
2022/07/24 05:31:41;;;;;;;7.40;4.22;;;;;;;18.88;74.02;101739.03;5042854;28;20025;-37
2022/07/24 05:34:06;;;;;;;7.53;3.85;;;;;;;19.02;73.03;101735.19;5041856;28;20121;-36
2022/07/24 05:36:32;;;;;;;8.85;3.90;;;;;;;19.03;72.66;101738.75;5042154;28;20069;-35
2022/07/24 05:38:57;;;;;;;8.63;4.18;;;;;;;19.08;71.91;101745.22;5042646;28;20045;-35
2022/07/24 05:41:23;;;;;;;5.63;3.83;;;;;;;19.29;71.51;101741.34;5042511;28;20424;-37
2022/07/24 05:43:48;;;;;;;5.85;4.10;;;;;;;19.43;70.55;101736.66;5044433;28;20025;-34
2022/07/24 05:46:13;;;;;;;7.18;3.40;;;;;;;19.39;70.12;101734.59;5044203;28;20053;-35
2022/07/24 05:48:39;;;;;;;5.45;3.03;;;;;;;19.35;70.18;101739.63;5043507;28;20077;-36
2022/07/24 05:51:04;;;;;;;4.25;3.05;;;;;;;19.43;70.14;101736.66;5043559;28;20117;-35
2022/07/24 05:53:29;;;;;;;6.47;3.58;;;;;;;19.51;69.72;101744.59;5042607;28;20085;-37
2022/07/24 05:55:55;;;;;;;6.07;2.90;;;;;;;19.63;69.71;101743.88;5042857;28;20048;-37
2022/07/24 05:58:20;;;;;;;5.85;3.17;;;;;;;19.55;68.49;101750.44;5043474;28;20026;-34
2022/07/24 06:00:46;;;;;;;4.53;3.00;;;;;;;19.58;69.12;101746.44;5024503;28;20036;-34
2022/07/24 06:03:12;;;;;;;5.82;3.10;;;;;;;19.44;68.99;101743.78;5042965;28;20029;-35
2022/07/24 06:05:37;;;;;;;4.65;3.13;;;;;;;19.44;69.41;101743.78;5042163;28;20116;-34
2022/07/24 06:08:03;;;;;;;4.97;2.92;;;;;;;19.42;69.83;101745.91;5042297;28;20076;-36
2022/07/24 06:10:29;;;;;;;5.57;2.92;;;;;;;19.40;69.51;101741.72;5042187;28;20037;-34
2022/07/24 06:12:54;;;;;;;5.15;3.10;;;;;;;19.52;70.00;101742.69;5042691;28;20052;-34
2022/07/24 06:15:20;;;;;;;5.45;3.03;;;;;;;19.55;68.66;101745.00;5026714;28;20029;-37
2022/07/24 06:17:45;;;;;;;6.63;3.53;;;;;;;19.71;68.57;101732.72;5044764;28;20591;-36
2022/07/24 06:20:12;;;;;;;5.03;2.50;;;;;;;20.07;67.99;101742.13;5048661;28;20052;-36
2022/07/24 06:22:39;;;;;;;3.55;2.90;;;;;;;20.51;66.09;101742.97;5049240;28;20063;-33
2022/07/24 06:25:05;;;;;;;5.78;2.58;;;;;;;20.89;64.70;101752.91;5047509;28;20461;-36
2022/07/24 06:27:30;;;;;;;6.93;2.85;;;;;;;20.78;64.40;101749.84;5044681;28;20029;-35
2022/07/24 06:29:55;;;;;;;4.28;3.08;;;;;;;20.68;65.10;101746.81;5043554;28;20030;-35
2022/07/24 06:32:21;;;;;;;8.57;2.63;;;;;;;20.67;64.93;101742.41;5043474;28;20069;-34
2022/07/24 06:34:46;;;;;;;5.00;2.60;;;;;;;20.62;65.17;101747.72;5043720;28;20103;-35
2022/07/24 06:37:11;;;;;;;3.47;2.60;;;;;;;20.64;65.46;101753.78;5044199;28;20145;-36
2022/07/24 06:39:37;;;;;;;5.45;2.92;;;;;;;21.00;64.70;101749.38;5046574;28;20033;-35
2022/07/24 06:42:02;;;;;;;3.47;2.28;;;;;;;22.12;62.71;101749.69;5048029;28;20102;-34
2022/07/24 06:44:28;;;;;;;5.05;2.65;;;;;;;22.75;58.64;101744.56;5048961;28;20325;-35
2022/07/24 06:46:53;;;;;;;5.32;2.50;;;;;;;22.97;58.17;101751.09;5049220;28;20059;-35
2022/07/24 06:49:19;;;;;;;2.90;2.28;;;;;;;22.64;59.04;101750.88;5044104;28;20059;-35
2022/07/24 06:51:44;;;;;;;7.30;2.53;;;;;;;23.14;58.24;101744.84;5048378;28;20059;-34
2022/07/24 06:54:09;;;;;;;4.35;2.40;;;;;;;23.11;57.17;101754.41;5049865;28;20033;-35
2022/07/24 06:56:35;;;;;;;8.00;2.53;;;;;;;23.05;57.62;101740.81;5049292;28;20030;-35
2022/07/24 06:59:01;;;;;;;4.32;2.33;;;;;;;24.06;54.92;101736.34;5050129;28;20018;-38
2022/07/24 07:01:26;;;;;;;5.72;2.65;;;;;;;23.90;55.45;101741.88;5050290;28;20037;-35
2022/07/24 07:03:55;;;;;;;4.57;2.03;;;;;;;24.83;53.02;101747.66;5049350;28;20342;-35
2022/07/24 07:06:21;;;;;;;5.63;2.28;;;;;;;25.15;51.27;101740.41;5049270;28;20033;-38
2022/07/24 07:08:46;;;;;;;5.72;2.60;;;;;;;25.19;50.96;101735.19;5049688;28;20040;-36
2022/07/24 07:11:12;;;;;;;5.35;2.40;;;;;;;25.86;50.25;101739.50;5049598;28;20037;-36
2022/07/24 07:13:37;;;;;;;2.80;2.00;;;;;;;26.29;48.75;101745.88;5049648;28;20013;-35
2022/07/24 07:16:03;;;;;;;3.35;2.10;;;;;;;26.14;48.54;101745.75;5014539;28;20317;-36
2022/07/24 07:18:28;;;;;;;6.68;2.15;;;;;;;25.90;48.61;101748.06;5048148;28;20132;-35
2022/07/24 07:20:54;;;;;;;4.88;2.10;;;;;;;26.11;48.68;101743.53;5046270;28;20051;-37
2022/07/24 07:23:23;;;;;;;3.92;1.92;;;;;;;26.23;48.30;101746.94;5046624;28;20036;-33
2022/07/24 07:25:49;;;;;;;2.65;2.10;;;;;;;25.25;49.51;101744.34;5046721;28;20021;-34
2022/07/24 07:28:15;;;;;;;4.35;1.90;;;;;;;24.65;52.51;101749.66;5026215;28;20033;-35
2022/07/24 07:30:40;;;;;;;8.75;2.25;;;;;;;24.79;51.86;101735.53;5042758;28;20017;-36
2022/07/24 07:33:05;;;;;;;2.10;1.80;;;;;;;24.42;52.71;101731.41;5042273;28;20053;-37
2022/07/24 07:35:31;;;;;;;5.43;2.00;;;;;;;24.41;53.55;101728.91;5042682;28;20050;-36
2022/07/24 07:37:56;;;;;;;3.70;1.92;;;;;;;25.46;51.09;101732.47;5045840;28;20025;-34
2022/07/24 07:40:22;;;;;;;5.63;2.03;;;;;;;26.29;48.25;101729.31;5046349;28;20111;-36
2022/07/24 07:42:47;;;;;;;6.00;2.25;;;;;;;26.13;48.81;101730.31;5028368;28;20112;-36
2022/07/24 07:45:13;;;;;;;4.60;2.10;;;;;;;25.78;48.25;101731.69;5045119;28;20037;-35
2022/07/24 07:47:38;;;;;;;3.00;1.98;;;;;;;25.98;48.73;101729.09;5044481;28;20055;-38
2022/07/24 07:50:04;;;;;;;3.88;2.20;;;;;;;26.19;47.35;101723.72;5041812;28;20029;-38
2022/07/24 07:52:29;;;;;;;2.58;2.05;;;;;;;25.72;49.16;101730.78;5043266;28;20021;-36
2022/07/24 07:54:55;;;;;;;3.83;1.85;;;;;;;26.54;47.33;101731.44;5044146;28;20060;-36
2022/07/24 07:57:20;;;;;;;4.70;1.85;;;;;;;27.25;45.84;101730.94;5045217;28;20037;-37
2022/07/24 07:59:45;;;;;;;4.65;2.08;;;;;;;27.83;43.34;101718.84;5045060;28;20095;-38
2022/07/24 08:02:11;;;;;;;5.40;2.10;;;;;;;26.53;45.56;101723.44;5043779;28;20049;-34
2022/07/24 08:04:36;;;;;;;2.92;1.90;;;;;;;27.51;44.65;101726.25;5026664;28;20076;-38
2022/07/24 08:07:02;;;;;;;3.70;2.10;;;;;;;27.02;44.88;101725.88;5045426;28;20033;-38
2022/07/24 08:09:27;;;;;;;2.53;1.90;;;;;;;26.97;44.66;101718.38;5026552;28;20029;-33
2022/07/24 08:11:52;;;;;;;3.38;2.08;;;;;;;27.91;43.71;101721.06;5026181;28;20025;-35
2022/07/24 08:14:18;;;;;;;3.13;2.50;;;;;;;28.37;40.66;101724.59;5044695;28;20030;-36
2022/07/24 08:16:43;;;;;;;12.30;2.42;;;;;;;27.72;42.84;101729.88;5025945;28;20120;-34
2022/07/24 08:19:08;;;;;;;4.85;2.05;;;;;;;26.95;44.84;101720.56;5025612;28;20021;-35
2022/07/24 08:21:34;;;;;;;3.88;2.28;;;;;;;27.01;44.45;101721.41;5025804;28;20420;-37
2022/07/24 08:23:59;;;;;;;2.60;2.20;;;;;;;26.93;44.02;101720.84;5043967;28;20102;-38
2022/07/24 08:26:24;;;;;;;3.33;2.10;;;;;;;27.56;43.04;101725.44;5043567;28;20385;-35
2022/07/24 08:28:50;;;;;;;7.90;2.20;;;;;;;27.32;43.48;101725.97;5042013;28;20048;-34
2022/07/24 08:31:15;;;;;;;4.00;2.13;;;;;;;27.24;43.46;101728.44;5024246;28;20041;-35
2022/07/24 08:33:40;;;;;;;4.70;2.00;;;;;;;28.18;42.40;101724.38;5024330;28;20108;-35
2022/07/24 08:36:06;;;;;;;4.63;2.10;;;;;;;28.38;40.75;101717.94;5024289;28;20057;-37
2022/07/24 08:38:31;;;;;;;4.03;2.17;;;;;;;27.47;42.18;101727.09;5043095;28;20154;-38
2022/07/24 08:40:57;;;;;;;4.00;1.95;;;;;;;27.64;42.79;101715.78;5026782;28;20056;-36
2022/07/24 08:43:22;;;;;;;8.40;2.20;;;;;;;28.01;42.01;101713.56;5047136;28;20186;-36
2022/07/24 08:45:49;;;;;;;5.32;2.15;;;;;;;27.49;42.17;101708.28;5012361;28;20029;-38
2022/07/24 08:48:15;;;;;;;5.82;2.00;;;;;;;28.05;41.43;101705.56;5028218;28;20025;-37
2022/07/24 08:50:42;;;;;;;7.57;2.53;;;;;;;28.36;41.17;101708.28;5047370;28;20041;-36
2022/07/24 08:53:08;;;;;;;2.85;1.90;;;;;;;28.17;41.91;101708.88;5046592;28;20021;-38
2022/07/24 08:55:33;;;;;;;3.70;2.20;;;;;;;27.68;41.68;101698.34;5029235;28;20033;-36
2022/07/24 08:58:00;;;;;;;4.05;2.28;;;;;;;28.16;41.83;101707.19;5045551;28;20529;-37
2022/07/24 09:00:26;;;;;;;6.18;2.65;;;;;;;28.46;41.13;101711.03;5028489;28;20052;-36
2022/07/24 09:02:52;;;;;;;4.43;2.50;;;;;;;28.37;40.85;101707.16;5046003;28;20064;-39
2022/07/24 09:05:17;;;;;;;3.65;2.40;;;;;;;29.60;39.57;101707.41;5045058;28;20117;-38
2022/07/24 09:07:42;;;;;;;3.85;2.40;;;;;;;29.30;38.88;101709.28;5046085;28;20098;-38
2022/07/24 09:10:13;;;;;;;3.13;2.50;;;;;;;30.01;37.34;101706.25;5028340;28;20512;-39
2022/07/24 09:12:42;;;;;;;3.83;2.40;;;;;;;29.75;36.70;101706.47;5045964;28;20029;-35
2022/07/24 09:15:19;;;;;;;5.03;2.60;;;;;;;29.20;37.89;101705.72;5012728;28;20022;-36
2022/07/24 09:17:48;;;;;;;3.72;2.50;;;;;;;28.12;39.30;101699.72;5028032;28;20037;-37
2022/07/24 09:20:14;;;;;;;6.30;2.72;;;;;;;27.46;41.39;101711.59;5027272;28;20029;-37
2022/07/24 09:22:40;;;;;;;4.20;2.55;;;;;;;27.57;41.48;101697.53;5045645;28;20022;-36
2022/07/24 09:25:16;;;;;;;3.85;2.45;;;;;;;28.24;40.96;101703.84;5042901;28;20477;-39
2022/07/24 09:27:49;;;;;;;6.60;2.60;;;;;;;28.08;40.39;101699.47;5027233;28;20056;-39
2022/07/24 09:30:36;;;;;;;3.13;2.30;;;;;;;28.41;39.10;101699.94;5026993;28;20025;-34
2022/07/24 09:33:04;;;;;;;3.40;2.33;;;;;;;28.79;38.97;101697.63;5027621;28;20033;-35
2022/07/24 09:35:33;;;;;;;3.47;2.50;;;;;;;28.98;38.57;101703.34;5044723;28;20045;-38
2022/07/24 09:37:59;;;;;;;4.22;2.67;;;;;;;29.03;37.62;101693.06;5045493;28;20040;-38
2022/07/24 09:40:29;;;;;;;4.50;2.20;;;;;;;29.37;37.32;101697.03;5028347;28;20059;-38
2022/07/24 09:43:24;;;;;;;4.10;2.40;;;;;;;28.93;37.85;101704.19;5045843;28;20089;-38
2022/07/24 09:46:02;;;;;;;4.03;2.33;;;;;;;28.78;38.19;101695.94;5028418;28;20120;-37
2022/07/24 09:48:38;;;;;;;4.65;2.70;;;;;;;29.69;37.39;101704.88;5045691;28;20392;-36
2022/07/24 09:51:15;;;;;;;8.38;2.50;;;;;;;28.79;38.56;101704.00;5045171;28;20040;-37
2022/07/24 09:53:41;;;;;;;6.15;2.40;;;;;;;29.24;38.17;101685.47;5026289;28;20045;-37
2022/07/24 09:56:11;;;;;;;3.20;2.72;;;;;;;29.28;37.48;101697.66;5010041;28;20045;-38
2022/07/24 09:58:41;;;;;;;6.30;2.78;;;;;;;29.24;37.88;101692.97;5044084;28;20025;-36
2022/07/24 10:01:08;;;;;;;5.50;2.60;;;;;;;29.84;37.51;101690.03;5027368;28;20026;-36
2022/07/24 10:03:38;;;;;;;3.13;2.30;;;;;;;30.32;35.73;101690.97;5026755;28;20021;-36
2022/07/24 10:06:05;;;;;;;6.57;2.55;;;;;;;30.20;36.39;101687.72;5045256;28;20030;-38
2022/07/24 10:08:32;;;;;;;4.43;2.30;;;;;;;31.04;36.43;101688.13;5026674;28;20026;-37
2022/07/24 10:10:58;;;;;;;4.22;2.50;;;;;;;30.97;35.59;101692.41;5027130;28;20030;-36
2022/07/24 10:13:25;;;;;;;4.60;2.60;;;;;;;30.88;35.23;101685.84;5044390;28;20021;-39
2022/07/24 10:16:12;;;;;;;4.90;2.70;;;;;;;30.50;35.38;101678.25;5044630;28;20044;-35
2022/07/24 10:18:51;;;;;;;4.57;2.50;;;;;;;31.20;35.06;101682.34;5045067;28;20032;-39
2022/07/24 10:21:24;;;;;;;5.72;2.70;;;;;;;31.99;33.02;101682.44;5044930;28;20032;-35
2022/07/24 10:24:07;;;;;;;5.93;2.60;;;;;;;32.10;32.84;101678.38;5044231;28;20028;-35
2022/07/24 10:26:45;;;;;;;4.53;2.45;;;;;;;32.05;33.14;101672.06;5045420;28;20037;-36
2022/07/24 10:29:15;;;;;;;4.28;2.50;;;;;;;32.05;33.34;101669.28;5045188;28;20053;-36
2022/07/24 10:31:43;;;;;;;4.57;2.50;;;;;;;32.06;33.04;101668.97;5026831;28;20124;-35
2022/07/24 10:34:24;;;;;;;4.82;2.30;;;;;;;32.14;32.77;101671.03;5044506;28;20089;-38
2022/07/24 10:37:07;;;;;;;10.85;2.80;;;;;;;31.66;33.56;101668.53;5025979;28;20053;-36
2022/07/24 10:39:47;;;;;;;5.38;2.70;;;;;;;31.01;34.62;101674.81;5025856;28;20025;-38
2022/07/24 10:42:12;;;;;;;4.20;2.75;;;;;;;30.17;35.83;101666.09;5025239;28;20025;-36
2022/07/24 10:44:39;;;;;;;4.83;3.00;;;;;;;30.09;36.25;101669.53;5043467;28;20041;-37
2022/07/24 10:47:09;;;;;;;4.93;2.90;;;;;;;30.07;36.38;101660.66;5026348;28;20366;-38
2022/07/24 10:49:41;;;;;;;3.95;2.83;;;;;;;30.24;36.59;101651.91;5043307;28;20539;-37
2022/07/24 10:52:08;;;;;;;6.90;2.90;;;;;;;30.54;35.38;101659.03;5043207;28;20089;-37
2022/07/24 10:54:34;;;;;;;6.90;2.90;;;;;;;30.59;34.87;101653.41;5025143;28;20026;-36
2022/07/24 10:56:59;;;;;;;4.57;2.60;;;;;;;31.45;34.40;101668.06;5009468;28;20026;-38
2022/07/24 10:59:33;;;;;;;7.30;2.80;;;;;;;30.76;34.79;101650.97;5008709;28;20352;-35
2022/07/24 11:02:26;;;;;;;14.30;3.38;;;;;;;31.80;34.57;101651.88;5043071;28;20171;-37
2022/07/24 11:05:26;;;;;;;5.05;2.83;;;;;;;31.91;33.21;101645.00;5043197;28;20032;-38
2022/07/24 11:08:20;;;;;;;7.18;2.80;;;;;;;31.16;34.33;101651.53;5025258;28;20028;-39
2022/07/24 11:10:50;;;;;;;5.00;3.10;;;;;;;31.30;35.00;101647.97;5026368;28;20052;-40
2022/07/24 11:13:34;;;;;;;14.52;3.30;;;;;;;31.62;33.53;101650.78;5009789;28;20456;-36
2022/07/24 11:16:11;;;;;;;5.90;3.00;;;;;;;31.06;34.02;101654.47;5043040;28;20112;-39
2022/07/24 11:18:46;;;;;;;7.15;2.78;;;;;;;31.56;34.74;101643.66;5043982;28;20036;-36
2022/07/24 11:21:11;;;;;;;6.10;3.00;;;;;;;31.78;33.77;101634.69;5043026;28;20105;-37